createdAt,value
2018-07-02T00:00:50.750Z,85.80
2018-07-02T00:03:20.845Z,84.20
2018-07-02T00:06:07.901Z,84.30
2018-07-02T00:08:38.039Z,84.00
2018-07-02T00:11:08.155Z,84.60
2018-07-02T00:13:38.264Z,85.20
2018-07-02T00:16:08.374Z,85.10
2018-07-02T00:18:38.504Z,84.70
2018-07-02T00:21:08.616Z,85.20
2018-07-02T00:23:38.709Z,85.20
2018-07-02T00:26:08.838Z,85.40
2018-07-02T00:28:38.952Z,84.70
2018-07-02T00:31:09.064Z,85.00
2018-07-02T00:33:39.180Z,85.30
2018-07-02T00:36:09.336Z,84.90
2018-07-02T00:38:39.561Z,84.60
2018-07-02T00:41:10.024Z,84.10
2018-07-02T00:43:40.116Z,85.60
2018-07-02T00:46:10.208Z,85.40
2018-07-02T00:48:40.368Z,85.20
2018-07-02T00:51:10.529Z,86.80
2018-07-02T00:53:40.716Z,86.10
2018-07-02T00:56:10.866Z,86.40
2018-07-02T00:58:40.985Z,86.30
2018-07-02T01:01:11.144Z,86.70
2018-07-02T01:03:41.253Z,86.60
2018-07-02T01:06:11.380Z,86.90
2018-07-02T01:08:41.541Z,87.00
2018-07-02T01:11:11.661Z,87.30
2018-07-02T01:13:41.786Z,87.70
2018-07-02T01:16:11.917Z,88.70
2018-07-02T01:18:42.044Z,88.90
2018-07-02T01:21:12.156Z,88.80
2018-07-02T01:23:42.604Z,88.30
2018-07-02T01:26:13.383Z,85.60
2018-07-02T01:28:43.717Z,85.80
2018-07-02T01:31:14.220Z,85.00
2018-07-02T01:33:44.436Z,84.20
2018-07-02T01:36:14.537Z,84.30
2018-07-02T01:38:44.675Z,84.90
2018-07-02T01:41:14.858Z,85.20
2018-07-02T01:43:45.096Z,84.20
2018-07-02T01:46:15.199Z,84.30
2018-07-02T01:48:45.288Z,85.30
2018-07-02T01:51:15.428Z,85.40
2018-07-02T01:53:45.769Z,84.80
2018-07-02T01:56:15.869Z,85.10
2018-07-02T01:58:45.960Z,86.00
2018-07-02T02:01:16.091Z,87.00
2018-07-02T02:03:46.463Z,86.00
2018-07-02T02:08:46.251Z,86.40
2018-07-02T02:11:16.384Z,85.90
2018-07-02T02:13:46.829Z,85.60
2018-07-02T02:16:16.942Z,86.20
2018-07-02T02:18:47.048Z,85.80
2018-07-02T02:21:17.142Z,86.80
2018-07-02T02:23:47.434Z,87.50
2018-07-02T02:26:17.544Z,86.50
2018-07-02T02:28:47.636Z,86.20
2018-07-02T02:31:17.749Z,86.20
2018-07-02T02:33:47.925Z,86.30
2018-07-02T02:36:17.999Z,85.90
2018-07-02T02:38:48.112Z,86.70
2018-07-02T02:41:18.215Z,86.70
2018-07-02T02:43:48.360Z,87.00
2018-07-02T02:46:18.469Z,87.10
2018-07-02T02:48:48.626Z,87.80
2018-07-02T02:51:18.728Z,88.90
2018-07-02T02:53:48.845Z,90.00
2018-07-02T02:56:18.941Z,90.10
2018-07-02T02:58:49.016Z,90.30
2018-07-02T03:01:19.116Z,90.60
2018-07-02T03:03:49.316Z,90.70
2018-07-02T03:06:19.407Z,89.30
2018-07-02T03:08:49.515Z,88.90
2018-07-02T03:11:19.604Z,89.10
2018-07-02T03:13:49.748Z,88.90
2018-07-02T03:16:19.900Z,88.50
2018-07-02T03:18:50.209Z,89.00
2018-07-02T03:21:20.331Z,89.20
2018-07-02T03:23:50.444Z,88.80
2018-07-02T03:26:20.540Z,89.20
2018-07-02T03:28:50.654Z,90.00
2018-07-02T03:31:20.761Z,90.40
2018-07-02T03:33:50.853Z,90.60
2018-07-02T03:36:20.956Z,90.50
2018-07-02T03:38:51.067Z,90.40
2018-07-02T03:41:21.160Z,90.40
2018-07-02T03:43:51.247Z,90.70
2018-07-02T03:46:21.479Z,90.90
2018-07-02T03:48:51.603Z,91.30
2018-07-02T03:51:21.695Z,91.30
2018-07-02T03:53:51.768Z,91.20
2018-07-02T03:56:21.859Z,91.10
2018-07-02T03:58:51.920Z,90.60
2018-07-02T04:01:22.091Z,90.40
2018-07-02T04:03:52.241Z,90.00
2018-07-02T04:06:22.380Z,89.00
2018-07-02T04:08:52.516Z,88.70
2018-07-02T04:11:22.604Z,88.30
2018-07-02T04:13:52.705Z,87.30
2018-07-02T04:16:22.801Z,87.70
2018-07-02T04:18:56.973Z,87.50
2018-07-02T04:21:27.060Z,87.00
2018-07-02T04:23:57.155Z,87.30
2018-07-02T04:26:27.228Z,86.60
2018-07-02T04:28:57.340Z,86.50
2018-07-02T04:31:27.627Z,85.90
2018-07-02T04:33:57.888Z,87.00
2018-07-02T04:36:28.080Z,86.90
2018-07-02T04:38:58.170Z,86.70
2018-07-02T04:41:28.264Z,86.50
2018-07-02T04:43:58.452Z,86.00
2018-07-02T04:46:28.517Z,86.00
2018-07-02T04:48:58.636Z,85.60
2018-07-02T04:51:28.782Z,85.80
2018-07-02T04:53:58.980Z,84.90
2018-07-02T04:56:29.380Z,84.40
2018-07-02T04:58:59.595Z,84.50
2018-07-02T05:01:29.684Z,84.80
2018-07-02T05:03:59.780Z,84.20
2018-07-02T05:06:29.865Z,81.00
2018-07-02T05:08:59.956Z,82.40
2018-07-02T05:11:30.113Z,83.10
2018-07-02T05:14:00.227Z,82.30
2018-07-02T05:16:30.307Z,81.30
2018-07-02T05:19:00.405Z,80.90
2018-07-02T05:24:00.296Z,80.30
2018-07-02T05:26:30.404Z,80.10
2018-07-02T05:29:00.470Z,78.80
2018-07-02T05:31:30.671Z,77.90
2018-07-02T05:34:00.812Z,78.00
2018-07-02T05:36:31.208Z,77.30
2018-07-02T05:39:01.301Z,77.50
2018-07-02T05:41:31.430Z,76.30
2018-07-02T05:44:01.615Z,75.10
2018-07-02T05:46:31.755Z,74.70
2018-07-02T05:49:01.853Z,74.20
2018-07-02T05:51:31.936Z,74.00
2018-07-02T05:54:02.084Z,70.70
2018-07-02T05:56:32.204Z,71.50
2018-07-02T05:59:02.289Z,66.30
2018-07-02T06:01:32.392Z,62.90
2018-07-02T06:06:32.180Z,58.00
2018-07-02T06:09:02.276Z,56.10
2018-07-02T06:11:32.372Z,58.10
2018-07-02T06:14:02.431Z,57.90
2018-07-02T06:16:32.528Z,59.20
2018-07-02T06:19:02.608Z,57.60
2018-07-02T06:24:02.356Z,56.50
2018-07-02T06:26:32.428Z,54.70
2018-07-02T06:29:02.597Z,53.20
2018-07-02T06:31:32.772Z,53.50
2018-07-02T06:34:02.853Z,55.00
2018-07-02T06:36:32.980Z,52.60
2018-07-02T06:39:03.176Z,51.10
2018-07-02T06:41:33.255Z,50.90
2018-07-02T06:44:03.432Z,51.70
2018-07-02T06:46:33.758Z,54.10
2018-07-02T06:49:03.857Z,54.20
2018-07-02T06:51:33.979Z,52.80
2018-07-02T06:54:04.124Z,52.60
2018-07-02T06:56:34.319Z,52.70
2018-07-02T06:59:04.460Z,52.80
2018-07-02T07:01:34.536Z,52.70
2018-07-02T07:04:04.673Z,52.00
2018-07-02T07:06:34.795Z,52.20
2018-07-02T07:09:07.048Z,52.80
2018-07-02T07:11:37.208Z,52.20
2018-07-02T07:14:07.555Z,52.80
2018-07-02T07:16:37.663Z,50.80
2018-07-02T07:19:07.811Z,50.50
2018-07-02T07:21:37.944Z,49.60
2018-07-02T07:24:08.036Z,50.00
2018-07-02T07:26:38.124Z,49.70
2018-07-02T07:29:08.319Z,51.10
2018-07-02T07:34:08.103Z,48.70
2018-07-02T07:36:38.224Z,48.70
2018-07-02T07:39:10.868Z,50.20
2018-07-02T07:41:41.248Z,48.30
2018-07-02T07:44:14.060Z,51.00
2018-07-02T07:46:44.129Z,50.40
2018-07-02T07:49:14.261Z,50.70
2018-07-02T07:51:44.324Z,49.60
2018-07-02T07:54:14.559Z,50.20
2018-07-02T07:56:44.637Z,49.70
2018-07-02T07:59:14.712Z,51.10
2018-07-02T08:01:44.792Z,50.60
2018-07-02T08:04:14.992Z,50.30
2018-07-02T08:06:45.101Z,53.20
2018-07-02T08:09:15.536Z,53.50
2018-07-02T08:11:45.670Z,55.70
2018-07-02T08:14:15.758Z,52.70
2018-07-02T08:16:45.908Z,54.10
2018-07-02T08:19:16.066Z,52.60
2018-07-02T08:21:46.092Z,52.70
2018-07-02T08:24:16.215Z,53.80
2018-07-02T08:26:46.333Z,53.50
2018-07-02T08:29:16.464Z,52.80
2018-07-02T08:34:16.380Z,54.30
2018-07-02T08:36:46.524Z,54.70
2018-07-02T08:39:16.650Z,54.50
2018-07-02T08:41:46.719Z,54.50
2018-07-02T08:44:16.836Z,53.60
2018-07-02T08:46:46.935Z,53.60
2018-07-02T08:49:17.071Z,54.00
2018-07-02T08:51:47.159Z,56.30
2018-07-02T08:54:17.243Z,54.60
2018-07-02T08:56:47.388Z,54.30
2018-07-02T08:59:17.467Z,53.80
2018-07-02T09:01:47.652Z,53.90
2018-07-02T09:04:17.776Z,53.60
2018-07-02T09:06:47.911Z,55.00
2018-07-02T09:09:17.976Z,55.20
2018-07-02T09:11:48.118Z,55.10
2018-07-02T09:14:18.184Z,52.60
2018-07-02T09:16:48.503Z,52.50
2018-07-02T09:19:18.599Z,52.60
2018-07-02T09:21:48.874Z,51.70
2018-07-02T09:24:18.841Z,50.90
2018-07-02T09:26:48.940Z,52.00
2018-07-02T09:29:19.033Z,52.60
2018-07-02T09:31:49.279Z,52.00
2018-07-02T09:34:19.353Z,55.00
2018-07-02T09:36:49.452Z,53.20
2018-07-02T09:41:49.460Z,49.90
2018-07-02T09:46:49.250Z,49.00
2018-07-02T09:49:19.420Z,50.00
2018-07-02T09:51:49.545Z,50.70
2018-07-02T09:54:19.760Z,49.70
2018-07-02T09:56:49.840Z,50.30
2018-07-02T09:59:20.065Z,50.60
2018-07-02T10:01:50.172Z,48.60
2018-07-02T10:04:20.284Z,48.70
2018-07-02T10:06:50.676Z,49.70
2018-07-02T10:09:20.753Z,49.70
2018-07-02T10:11:50.875Z,50.50
2018-07-02T10:14:20.976Z,50.80
2018-07-02T10:16:51.056Z,49.80
2018-07-02T10:19:21.132Z,50.90
2018-07-02T10:21:51.260Z,51.20
2018-07-02T10:24:21.344Z,50.70
2018-07-02T10:26:51.456Z,52.10
2018-07-02T10:29:21.618Z,52.40
2018-07-02T10:31:51.644Z,53.90
2018-07-02T10:34:21.740Z,52.90
2018-07-02T10:36:51.827Z,52.40
2018-07-02T10:39:21.925Z,54.10
2018-07-02T10:41:52.271Z,55.10
2018-07-02T10:44:22.332Z,52.00
2018-07-02T10:46:52.429Z,51.70
2018-07-02T10:49:22.517Z,52.20
2018-07-02T10:51:53.000Z,52.20
2018-07-02T10:54:23.081Z,52.20
2018-07-02T10:56:53.197Z,52.30
2018-07-02T10:59:23.308Z,54.00
2018-07-02T11:01:53.437Z,54.20
2018-07-02T11:04:23.621Z,53.90
2018-07-02T11:06:53.718Z,54.80
2018-07-02T11:09:23.794Z,55.40
2018-07-02T11:11:54.071Z,55.30
2018-07-02T11:14:24.137Z,56.00
2018-07-02T11:16:54.548Z,56.60
2018-07-02T11:19:24.817Z,57.20
2018-07-02T11:21:55.078Z,57.50
2018-07-02T11:24:25.209Z,57.80
2018-07-02T11:26:55.461Z,56.90
2018-07-02T11:29:25.528Z,57.50
2018-07-02T11:34:25.345Z,57.60
2018-07-02T11:36:55.476Z,59.10
2018-07-02T11:39:25.544Z,59.20
2018-07-02T11:41:55.644Z,59.90
2018-07-02T11:44:25.726Z,60.80
2018-07-02T11:46:55.940Z,58.30
2018-07-02T11:51:55.728Z,59.70
2018-07-02T11:54:25.817Z,59.30
2018-07-02T11:56:55.985Z,59.00
2018-07-02T11:59:32.680Z,59.80
2018-07-02T12:02:02.780Z,59.80
2018-07-02T12:04:32.968Z,60.20
2018-07-02T12:07:03.153Z,60.00
2018-07-02T12:09:33.287Z,59.80
2018-07-02T12:12:03.412Z,59.00
2018-07-02T12:14:33.556Z,59.60
2018-07-02T12:17:03.777Z,60.00
2018-07-02T12:19:33.939Z,60.00
2018-07-02T12:22:04.196Z,60.60
2018-07-02T12:24:34.704Z,59.00
2018-07-02T12:27:05.004Z,59.30
2018-07-02T12:29:35.180Z,59.10
2018-07-02T12:32:05.401Z,60.40
2018-07-02T12:34:35.548Z,61.10
2018-07-02T12:37:05.656Z,59.20
2018-07-02T12:39:36.940Z,60.10
2018-07-02T12:42:07.485Z,60.10
2018-07-02T12:44:37.560Z,59.50
2018-07-02T12:47:07.755Z,59.30
2018-07-02T12:49:37.925Z,60.30
2018-07-02T12:52:08.592Z,59.80
2018-07-02T12:54:38.672Z,59.80
2018-07-02T12:57:08.809Z,63.10
2018-07-02T12:59:38.889Z,61.10
2018-07-02T13:02:09.041Z,60.60
2018-07-02T13:04:39.128Z,59.90
2018-07-02T13:07:09.249Z,60.70
2018-07-02T13:09:39.444Z,60.90
2018-07-02T13:12:09.652Z,60.50
2018-07-02T13:14:39.932Z,61.50
2018-07-02T13:17:10.156Z,60.60
2018-07-02T13:22:10.276Z,60.70
2018-07-02T13:24:40.472Z,60.90
2018-07-02T13:27:10.708Z,59.90
2018-07-02T13:29:40.928Z,59.20
2018-07-02T13:34:40.928Z,60.30
2018-07-02T13:37:11.041Z,59.30
2018-07-02T13:39:41.124Z,61.50
2018-07-02T13:42:11.232Z,59.20
2018-07-02T13:44:41.469Z,59.80
2018-07-02T13:47:11.560Z,60.00
2018-07-02T13:49:41.621Z,60.40
2018-07-02T13:52:11.709Z,61.10
2018-07-02T13:54:41.772Z,60.40
2018-07-02T13:57:11.919Z,60.80
2018-07-02T13:59:42.034Z,60.90
2018-07-02T14:02:12.089Z,61.10
2018-07-02T14:04:42.344Z,60.30
2018-07-02T14:07:12.454Z,60.90
2018-07-02T14:09:42.525Z,61.10
2018-07-02T14:12:12.672Z,60.40
2018-07-02T14:14:42.789Z,61.10
2018-07-02T14:17:12.836Z,63.00
2018-07-02T14:19:42.939Z,62.30
2018-07-02T14:22:13.038Z,62.10
2018-07-02T14:24:43.121Z,61.50
2018-07-02T14:27:13.234Z,61.00
2018-07-02T14:29:43.332Z,60.50
2018-07-02T14:32:13.424Z,61.40
2018-07-02T14:34:43.613Z,60.80
2018-07-02T14:37:13.752Z,61.70
2018-07-02T14:39:43.883Z,62.00
2018-07-02T14:42:14.012Z,61.40
2018-07-02T14:44:44.209Z,61.30
2018-07-02T14:47:14.296Z,61.60
2018-07-02T14:49:44.385Z,63.30
2018-07-02T14:52:14.688Z,63.60
2018-07-02T14:54:44.925Z,63.60
2018-07-02T14:57:15.174Z,63.40
2018-07-02T14:59:45.304Z,63.70
2018-07-02T15:02:15.407Z,62.20
2018-07-02T15:04:45.492Z,61.80
2018-07-02T15:07:15.582Z,60.40
2018-07-02T15:09:45.696Z,62.60
2018-07-02T15:12:15.808Z,61.70
2018-07-02T15:14:45.888Z,62.10
2018-07-02T15:17:15.972Z,61.80
2018-07-02T15:19:46.068Z,62.50
2018-07-02T15:22:16.156Z,62.10
2018-07-02T15:24:46.284Z,61.70
2018-07-02T15:27:16.370Z,62.40
2018-07-02T15:29:46.484Z,63.70
2018-07-02T15:32:16.761Z,64.00
2018-07-02T15:34:46.905Z,64.30
2018-07-02T15:37:17.068Z,64.40
2018-07-02T15:39:47.204Z,62.10
2018-07-02T15:42:17.336Z,62.40
2018-07-02T15:44:47.516Z,62.90
2018-07-02T15:47:17.649Z,62.30
2018-07-02T15:49:47.724Z,63.20
2018-07-02T15:54:47.529Z,64.10
2018-07-02T15:57:17.608Z,63.90
2018-07-02T15:59:47.707Z,63.70
2018-07-02T16:02:17.784Z,63.50
2018-07-02T16:04:47.966Z,66.30
2018-07-02T16:07:18.375Z,64.70
2018-07-02T16:09:48.451Z,65.70
2018-07-02T16:12:18.570Z,65.60
2018-07-02T16:14:48.662Z,66.50
2018-07-02T16:17:18.826Z,64.60
2018-07-02T16:19:48.900Z,65.80
2018-07-02T16:22:19.058Z,65.60
2018-07-02T16:24:49.147Z,66.10
2018-07-02T16:27:19.285Z,64.90
2018-07-02T16:29:49.407Z,64.50
2018-07-02T16:32:19.508Z,65.00
2018-07-02T16:34:49.620Z,65.00
2018-07-02T16:37:19.736Z,64.70
2018-07-02T16:39:49.808Z,64.60
2018-07-02T16:42:19.897Z,65.70
2018-07-02T16:47:19.731Z,64.10
2018-07-02T16:49:49.848Z,63.70
2018-07-02T16:52:20.007Z,64.60
2018-07-02T16:54:50.932Z,64.90
2018-07-02T16:57:21.437Z,64.90
2018-07-02T16:59:51.520Z,65.40
2018-07-02T17:02:21.641Z,66.20
2018-07-02T17:07:21.512Z,66.90
2018-07-02T17:09:51.618Z,68.20
2018-07-02T17:12:21.760Z,67.30
2018-07-02T17:14:51.945Z,67.70
2018-07-02T17:17:22.125Z,67.80
2018-07-02T17:19:52.236Z,67.30
2018-07-02T17:22:22.362Z,68.90
2018-07-02T17:27:22.307Z,68.30
2018-07-02T17:29:52.429Z,67.70
2018-07-02T17:32:22.524Z,68.10
2018-07-02T17:34:52.691Z,68.80
2018-07-02T17:37:22.805Z,69.60
2018-07-02T17:39:52.907Z,70.10
2018-07-02T17:42:23.054Z,70.80
2018-07-02T17:44:53.223Z,70.80
2018-07-02T17:47:23.325Z,71.50
2018-07-02T17:49:53.487Z,72.10
2018-07-02T17:52:23.608Z,71.80
2018-07-02T17:54:53.717Z,72.20
2018-07-02T17:57:23.848Z,72.30
2018-07-02T17:59:53.932Z,72.70
2018-07-02T18:02:25.028Z,73.20
2018-07-02T18:04:55.136Z,73.90
2018-07-02T18:07:25.249Z,74.10
2018-07-02T18:09:55.398Z,74.80
2018-07-02T18:12:25.497Z,75.00
2018-07-02T18:14:55.572Z,76.30
2018-07-02T18:17:25.660Z,77.70
2018-07-02T18:22:25.481Z,80.00
2018-07-02T18:24:55.660Z,80.60
2018-07-02T18:27:25.772Z,80.90
2018-07-02T18:29:55.967Z,81.40
2018-07-02T18:32:26.244Z,81.70
2018-07-02T18:34:56.360Z,82.60
2018-07-02T18:37:26.500Z,83.80
2018-07-02T18:39:56.787Z,84.80
2018-07-02T18:42:26.976Z,85.40
2018-07-02T18:44:57.114Z,87.50
2018-07-02T18:47:27.430Z,87.50
2018-07-02T18:49:57.541Z,88.60
2018-07-02T18:52:27.689Z,89.10
2018-07-02T18:54:57.880Z,89.20
2018-07-02T18:57:28.037Z,89.20
2018-07-02T18:59:58.183Z,89.20
2018-07-02T19:02:28.416Z,89.40
2018-07-02T19:04:58.566Z,90.20
2018-07-02T19:07:28.688Z,90.10
2018-07-02T19:09:58.888Z,90.50
2018-07-02T19:12:29.068Z,90.70
2018-07-02T19:14:59.188Z,90.90
2018-07-02T19:17:29.292Z,91.20
2018-07-02T19:19:59.555Z,91.20
2018-07-02T19:22:29.700Z,91.60
2018-07-02T19:24:59.808Z,91.70
2018-07-02T19:27:29.881Z,91.60
2018-07-02T19:29:59.990Z,91.90
2018-07-02T19:32:30.088Z,92.20
2018-07-02T19:35:00.277Z,92.50
2018-07-02T19:40:00.197Z,92.30
2018-07-02T19:42:30.380Z,92.40
2018-07-02T19:45:00.501Z,92.10
2018-07-02T19:47:30.629Z,92.10
2018-07-02T19:50:00.932Z,92.10
2018-07-02T19:52:31.039Z,91.70
2018-07-02T19:55:01.207Z,91.70
2018-07-02T19:57:31.297Z,91.80
2018-07-02T20:00:01.424Z,91.80
2018-07-02T20:02:32.438Z,91.90
2018-07-02T20:05:02.556Z,91.90
2018-07-02T20:07:32.685Z,91.90
2018-07-02T20:10:02.860Z,92.20
2018-07-02T20:15:02.738Z,92.50
2018-07-02T20:17:32.874Z,92.70
2018-07-02T20:20:03.122Z,92.80
2018-07-02T20:22:33.205Z,92.70
2018-07-02T20:25:03.380Z,92.70
2018-07-02T20:27:33.566Z,92.50
2018-07-02T20:30:04.068Z,92.70
2018-07-02T20:32:34.291Z,93.60
2018-07-02T20:35:04.654Z,93.30
2018-07-02T20:37:34.792Z,93.10
2018-07-02T20:40:05.505Z,93.10
2018-07-02T20:42:35.629Z,93.20
2018-07-02T20:45:06.852Z,93.10
2018-07-02T20:47:37.006Z,93.40
2018-07-02T20:50:07.153Z,93.00
2018-07-02T20:52:37.276Z,92.90
2018-07-02T20:55:07.508Z,92.90
2018-07-02T20:57:37.647Z,93.10
2018-07-02T21:00:08.311Z,93.10
2018-07-02T21:02:38.408Z,93.20
2018-07-02T21:05:08.587Z,93.50
2018-07-02T21:07:38.740Z,93.60
2018-07-02T21:10:08.984Z,93.40
2018-07-02T21:12:39.128Z,93.40
2018-07-02T21:17:38.977Z,93.30
2018-07-02T21:20:09.129Z,93.30
2018-07-02T21:25:09.016Z,93.30
2018-07-02T21:27:39.541Z,93.30
2018-07-02T21:32:40.045Z,93.60
2018-07-02T21:37:40.548Z,93.90
2018-07-02T21:40:10.733Z,93.90
2018-07-02T21:42:40.841Z,94.00
2018-07-02T21:45:10.986Z,94.10
2018-07-02T21:47:41.101Z,94.10
2018-07-02T21:50:11.580Z,94.30
2018-07-02T21:52:41.746Z,94.10
2018-07-02T21:55:11.840Z,94.10
2018-07-02T21:57:41.984Z,94.20
2018-07-02T22:00:13.933Z,94.00
2018-07-02T22:02:44.069Z,93.60
2018-07-02T22:05:14.284Z,93.40
2018-07-02T22:07:44.465Z,93.20
2018-07-02T22:10:14.666Z,93.30
2018-07-02T22:15:14.596Z,93.40
2018-07-02T22:17:44.750Z,93.60
2018-07-02T22:20:14.885Z,93.70
2018-07-02T22:22:44.969Z,93.70
2018-07-02T22:25:15.096Z,93.50
2018-07-02T22:27:45.201Z,93.50
2018-07-02T22:30:15.377Z,93.70
2018-07-02T22:32:45.506Z,93.90
2018-07-02T22:35:15.737Z,94.10
2018-07-02T22:37:45.829Z,94.10
2018-07-02T22:40:15.947Z,94.00
2018-07-02T22:42:46.044Z,94.00
2018-07-02T22:45:16.182Z,93.60
2018-07-02T22:47:46.288Z,93.60
2018-07-02T22:50:16.420Z,93.60
2018-07-02T22:52:46.569Z,93.30
2018-07-02T22:55:16.673Z,93.40
2018-07-02T22:57:46.784Z,93.80
2018-07-02T23:00:16.906Z,93.90
2018-07-02T23:02:47.550Z,93.80
2018-07-02T23:05:17.778Z,93.70
2018-07-02T23:07:48.685Z,93.70
2018-07-02T23:10:18.864Z,93.90
2018-07-02T23:12:48.985Z,93.90
2018-07-02T23:15:19.160Z,93.40
2018-07-02T23:17:49.263Z,93.60
2018-07-02T23:20:19.368Z,93.60
2018-07-02T23:23:00.397Z,93.70
2018-07-02T23:25:30.880Z,93.40
2018-07-02T23:28:02.104Z,93.80
2018-07-02T23:30:33.045Z,93.40
2018-07-02T23:33:03.143Z,93.20
2018-07-02T23:35:33.354Z,93.20
2018-07-02T23:38:03.487Z,93.30
2018-07-02T23:40:33.612Z,93.40
2018-07-02T23:43:03.785Z,93.60
2018-07-02T23:45:33.942Z,93.80
2018-07-02T23:48:04.060Z,94.00
2018-07-02T23:50:34.181Z,93.80
2018-07-02T23:53:04.295Z,93.80
2018-07-02T23:55:34.415Z,93.80
2018-07-02T23:58:04.625Z,93.90
